sensor_id;sensor_type;location;lat;lon;timestamp;P1;durP1;ratioP1;P2;durP2;ratioP2
46875;SDS011;32866;50.160;14.768;2023-04-24T00:00:03;21.45;;;14.77;;
46875;SDS011;32866;50.160;14.768;2023-04-24T00:02:37;18.33;;;14.03;;
46875;SDS011;32866;50.160;14.768;2023-04-24T00:05:06;19.93;;;15.00;;
46875;SDS011;32866;50.160;14.768;2023-04-24T00:07:32;17.33;;;13.03;;
46875;SDS011;32866;50.160;14.768;2023-04-24T00:09:58;19.63;;;13.63;;
46875;SDS011;32866;50.160;14.768;2023-04-24T00:12:23;19.85;;;14.35;;
46875;SDS011;32866;50.160;14.768;2023-04-24T00:17:14;18.27;;;12.47;;
46875;SDS011;32866;50.160;14.768;2023-04-24T00:19:40;19.08;;;12.68;;
46875;SDS011;32866;50.160;14.768;2023-04-24T00:22:05;15.73;;;12.07;;
46875;SDS011;32866;50.160;14.768;2023-04-24T00:24:31;17.10;;;12.63;;
46875;SDS011;32866;50.160;14.768;2023-04-24T00:26:56;16.48;;;12.07;;
46875;SDS011;32866;50.160;14.768;2023-04-24T00:29:22;16.88;;;11.93;;
46875;SDS011;32866;50.160;14.768;2023-04-24T00:31:47;19.30;;;11.32;;
46875;SDS011;32866;50.160;14.768;2023-04-24T00:34:13;15.15;;;12.07;;
46875;SDS011;32866;50.160;14.768;2023-04-24T00:36:38;15.77;;;11.88;;
46875;SDS011;32866;50.160;14.768;2023-04-24T00:39:04;16.65;;;11.73;;
46875;SDS011;32866;50.160;14.768;2023-04-24T00:41:29;16.48;;;11.23;;
46875;SDS011;32866;50.160;14.768;2023-04-24T00:43:55;17.63;;;11.80;;
46875;SDS011;32866;50.160;14.768;2023-04-24T00:46:21;18.10;;;11.55;;
46875;SDS011;32866;50.160;14.768;2023-04-24T00:48:46;16.60;;;10.65;;
46875;SDS011;32866;50.160;14.768;2023-04-24T00:51:11;15.75;;;11.43;;
46875;SDS011;32866;50.160;14.768;2023-04-24T00:53:37;17.85;;;11.88;;
46875;SDS011;32866;50.160;14.768;2023-04-24T00:56:02;15.60;;;10.10;;
46875;SDS011;32866;50.160;14.768;2023-04-24T00:58:29;13.77;;;9.90;;
46875;SDS011;32866;50.160;14.768;2023-04-24T01:00:56;13.63;;;9.70;;
46875;SDS011;32866;50.160;14.768;2023-04-24T01:08:15;10.60;;;8.03;;
46875;SDS011;32866;50.160;14.768;2023-04-24T01:10:41;9.18;;;7.20;;
46875;SDS011;32866;50.160;14.768;2023-04-24T01:13:09;12.63;;;7.13;;
46875;SDS011;32866;50.160;14.768;2023-04-24T01:15:35;9.57;;;6.60;;
46875;SDS011;32866;50.160;14.768;2023-04-24T01:18:01;8.85;;;6.85;;
46875;SDS011;32866;50.160;14.768;2023-04-24T01:20:26;8.70;;;5.97;;
46875;SDS011;32866;50.160;14.768;2023-04-24T01:22:52;10.20;;;6.07;;
46875;SDS011;32866;50.160;14.768;2023-04-24T01:25:19;8.20;;;5.90;;
46875;SDS011;32866;50.160;14.768;2023-04-24T01:27:45;9.88;;;7.20;;
46875;SDS011;32866;50.160;14.768;2023-04-24T01:30:11;9.77;;;6.03;;
46875;SDS011;32866;50.160;14.768;2023-04-24T01:35:02;8.87;;;6.30;;
46875;SDS011;32866;50.160;14.768;2023-04-24T01:37:28;7.65;;;6.35;;
46875;SDS011;32866;50.160;14.768;2023-04-24T01:39:54;8.70;;;6.07;;
46875;SDS011;32866;50.160;14.768;2023-04-24T01:42:19;8.55;;;6.15;;
46875;SDS011;32866;50.160;14.768;2023-04-24T01:44:45;8.73;;;6.13;;
46875;SDS011;32866;50.160;14.768;2023-04-24T01:47:10;7.20;;;5.05;;
46875;SDS011;32866;50.160;14.768;2023-04-24T01:49:37;7.55;;;5.55;;
46875;SDS011;32866;50.160;14.768;2023-04-24T01:52:03;5.80;;;4.00;;
46875;SDS011;32866;50.160;14.768;2023-04-24T01:54:28;5.07;;;3.58;;
46875;SDS011;32866;50.160;14.768;2023-04-24T01:56:54;4.70;;;2.92;;
46875;SDS011;32866;50.160;14.768;2023-04-24T01:59:19;4.90;;;2.90;;
46875;SDS011;32866;50.160;14.768;2023-04-24T02:01:46;4.40;;;2.93;;
46875;SDS011;32866;50.160;14.768;2023-04-24T02:04:11;5.38;;;3.47;;
46875;SDS011;32866;50.160;14.768;2023-04-24T02:06:37;3.65;;;2.55;;
46875;SDS011;32866;50.160;14.768;2023-04-24T02:09:02;3.70;;;2.60;;
46875;SDS011;32866;50.160;14.768;2023-04-24T02:11:28;3.88;;;2.50;;
46875;SDS011;32866;50.160;14.768;2023-04-24T02:13:53;6.05;;;2.08;;
46875;SDS011;32866;50.160;14.768;2023-04-24T02:16:19;3.53;;;2.25;;
46875;SDS011;32866;50.160;14.768;2023-04-24T02:18:44;4.43;;;2.20;;
46875;SDS011;32866;50.160;14.768;2023-04-24T02:21:10;4.13;;;2.70;;
46875;SDS011;32866;50.160;14.768;2023-04-24T02:23:35;6.18;;;2.67;;
46875;SDS011;32866;50.160;14.768;2023-04-24T02:26:01;2.80;;;2.20;;
46875;SDS011;32866;50.160;14.768;2023-04-24T02:28:26;4.05;;;2.15;;
46875;SDS011;32866;50.160;14.768;2023-04-24T02:30:52;6.22;;;2.08;;
46875;SDS011;32866;50.160;14.768;2023-04-24T02:33:17;1.88;;;1.77;;
46875;SDS011;32866;50.160;14.768;2023-04-24T02:35:42;3.35;;;1.95;;
46875;SDS011;32866;50.160;14.768;2023-04-24T02:38:08;1.80;;;1.48;;
46875;SDS011;32866;50.160;14.768;2023-04-24T02:40:33;4.07;;;1.60;;
46875;SDS011;32866;50.160;14.768;2023-04-24T02:42:58;5.80;;;1.55;;
46875;SDS011;32866;50.160;14.768;2023-04-24T02:45:24;2.47;;;2.20;;
46875;SDS011;32866;50.160;14.768;2023-04-24T02:47:49;4.20;;;1.83;;
46875;SDS011;32866;50.160;14.768;2023-04-24T02:50:15;3.47;;;1.48;;
46875;SDS011;32866;50.160;14.768;2023-04-24T02:52:40;2.03;;;1.75;;
46875;SDS011;32866;50.160;14.768;2023-04-24T02:55:05;2.33;;;1.65;;
46875;SDS011;32866;50.160;14.768;2023-04-24T02:57:32;2.10;;;1.90;;
46875;SDS011;32866;50.160;14.768;2023-04-24T02:59:58;3.17;;;1.70;;
46875;SDS011;32866;50.160;14.768;2023-04-24T03:02:23;2.60;;;1.98;;
46875;SDS011;32866;50.160;14.768;2023-04-24T03:04:48;2.70;;;1.55;;
46875;SDS011;32866;50.160;14.768;2023-04-24T03:07:14;3.47;;;1.75;;
46875;SDS011;32866;50.160;14.768;2023-04-24T03:09:40;3.95;;;1.88;;
46875;SDS011;32866;50.160;14.768;2023-04-24T03:12:05;2.65;;;1.67;;
46875;SDS011;32866;50.160;14.768;2023-04-24T03:14:31;2.97;;;1.85;;
46875;SDS011;32866;50.160;14.768;2023-04-24T03:16:57;2.83;;;2.13;;
46875;SDS011;32866;50.160;14.768;2023-04-24T03:19:22;2.28;;;1.75;;
46875;SDS011;32866;50.160;14.768;2023-04-24T03:21:47;3.53;;;1.60;;
46875;SDS011;32866;50.160;14.768;2023-04-24T03:26:39;2.00;;;1.67;;
46875;SDS011;32866;50.160;14.768;2023-04-24T03:29:04;2.85;;;1.60;;
46875;SDS011;32866;50.160;14.768;2023-04-24T03:31:29;2.95;;;2.40;;
46875;SDS011;32866;50.160;14.768;2023-04-24T03:33:55;1.98;;;1.70;;
46875;SDS011;32866;50.160;14.768;2023-04-24T03:36:20;2.78;;;1.95;;
46875;SDS011;32866;50.160;14.768;2023-04-24T03:38:46;3.35;;;2.40;;
46875;SDS011;32866;50.160;14.768;2023-04-24T03:41:11;2.20;;;1.85;;
46875;SDS011;32866;50.160;14.768;2023-04-24T03:43:37;2.00;;;1.80;;
46875;SDS011;32866;50.160;14.768;2023-04-24T03:46:03;2.28;;;2.05;;
46875;SDS011;32866;50.160;14.768;2023-04-24T03:48:28;3.13;;;1.92;;
46875;SDS011;32866;50.160;14.768;2023-04-24T03:50:54;1.92;;;1.40;;
46875;SDS011;32866;50.160;14.768;2023-04-24T03:53:19;3.95;;;1.75;;
46875;SDS011;32866;50.160;14.768;2023-04-24T03:55:45;1.90;;;1.65;;
46875;SDS011;32866;50.160;14.768;2023-04-24T03:58:10;2.08;;;1.58;;
46875;SDS011;32866;50.160;14.768;2023-04-24T04:00:36;2.17;;;1.98;;
46875;SDS011;32866;50.160;14.768;2023-04-24T04:03:02;2.80;;;2.15;;
46875;SDS011;32866;50.160;14.768;2023-04-24T04:05:28;2.80;;;1.88;;
46875;SDS011;32866;50.160;14.768;2023-04-24T04:07:54;2.80;;;1.70;;
46875;SDS011;32866;50.160;14.768;2023-04-24T04:10:20;2.70;;;1.40;;
46875;SDS011;32866;50.160;14.768;2023-04-24T04:12:46;1.70;;;1.60;;
46875;SDS011;32866;50.160;14.768;2023-04-24T04:15:11;3.85;;;1.92;;
46875;SDS011;32866;50.160;14.768;2023-04-24T04:17:37;4.60;;;1.63;;
46875;SDS011;32866;50.160;14.768;2023-04-24T04:20:04;3.63;;;1.60;;
46875;SDS011;32866;50.160;14.768;2023-04-24T04:22:34;5.80;;;1.93;;
46875;SDS011;32866;50.160;14.768;2023-04-24T04:24:59;2.65;;;2.00;;
46875;SDS011;32866;50.160;14.768;2023-04-24T04:27:25;1.42;;;1.33;;
46875;SDS011;32866;50.160;14.768;2023-04-24T04:29:51;4.97;;;1.57;;
46875;SDS011;32866;50.160;14.768;2023-04-24T04:32:17;2.03;;;1.50;;
46875;SDS011;32866;50.160;14.768;2023-04-24T04:34:42;2.08;;;1.73;;
46875;SDS011;32866;50.160;14.768;2023-04-24T04:37:10;2.97;;;1.83;;
46875;SDS011;32866;50.160;14.768;2023-04-24T04:39:36;2.42;;;1.85;;
46875;SDS011;32866;50.160;14.768;2023-04-24T04:42:01;2.55;;;2.05;;
46875;SDS011;32866;50.160;14.768;2023-04-24T04:44:27;2.47;;;1.60;;
46875;SDS011;32866;50.160;14.768;2023-04-24T04:46:52;2.88;;;2.15;;
46875;SDS011;32866;50.160;14.768;2023-04-24T04:49:21;2.23;;;1.70;;
46875;SDS011;32866;50.160;14.768;2023-04-24T04:51:46;2.10;;;1.73;;
46875;SDS011;32866;50.160;14.768;2023-04-24T04:54:12;6.05;;;1.88;;
46875;SDS011;32866;50.160;14.768;2023-04-24T04:56:37;3.33;;;1.83;;
46875;SDS011;32866;50.160;14.768;2023-04-24T04:59:02;2.55;;;1.98;;
46875;SDS011;32866;50.160;14.768;2023-04-24T05:01:28;2.25;;;1.80;;
46875;SDS011;32866;50.160;14.768;2023-04-24T05:03:53;4.45;;;1.63;;
46875;SDS011;32866;50.160;14.768;2023-04-24T05:06:19;4.05;;;2.03;;
46875;SDS011;32866;50.160;14.768;2023-04-24T05:08:44;2.50;;;1.80;;
46875;SDS011;32866;50.160;14.768;2023-04-24T05:11:10;2.20;;;1.70;;
46875;SDS011;32866;50.160;14.768;2023-04-24T05:13:35;2.83;;;1.90;;
46875;SDS011;32866;50.160;14.768;2023-04-24T05:16:00;5.30;;;1.92;;
46875;SDS011;32866;50.160;14.768;2023-04-24T05:18:26;1.73;;;1.60;;
46875;SDS011;32866;50.160;14.768;2023-04-24T05:20:51;5.72;;;1.83;;
46875;SDS011;32866;50.160;14.768;2023-04-24T05:23:16;2.65;;;1.80;;
46875;SDS011;32866;50.160;14.768;2023-04-24T05:25:42;2.08;;;1.65;;
46875;SDS011;32866;50.160;14.768;2023-04-24T05:28:07;3.40;;;1.77;;
46875;SDS011;32866;50.160;14.768;2023-04-24T05:30:33;4.13;;;1.95;;
46875;SDS011;32866;50.160;14.768;2023-04-24T05:32:58;2.92;;;2.05;;
46875;SDS011;32866;50.160;14.768;2023-04-24T05:35:24;3.72;;;2.10;;
46875;SDS011;32866;50.160;14.768;2023-04-24T05:37:49;2.72;;;1.88;;
46875;SDS011;32866;50.160;14.768;2023-04-24T05:40:15;4.82;;;2.10;;
46875;SDS011;32866;50.160;14.768;2023-04-24T05:42:40;4.50;;;1.70;;
46875;SDS011;32866;50.160;14.768;2023-04-24T05:45:06;1.60;;;1.50;;
46875;SDS011;32866;50.160;14.768;2023-04-24T05:47:32;3.20;;;1.90;;
46875;SDS011;32866;50.160;14.768;2023-04-24T05:49:57;3.58;;;1.80;;
46875;SDS011;32866;50.160;14.768;2023-04-24T05:52:23;2.92;;;1.70;;
46875;SDS011;32866;50.160;14.768;2023-04-24T05:54:48;2.47;;;2.28;;
46875;SDS011;32866;50.160;14.768;2023-04-24T05:57:14;2.67;;;1.73;;
46875;SDS011;32866;50.160;14.768;2023-04-24T05:59:40;5.30;;;2.05;;
46875;SDS011;32866;50.160;14.768;2023-04-24T06:02:05;4.65;;;1.88;;
46875;SDS011;32866;50.160;14.768;2023-04-24T06:06:56;3.13;;;1.97;;
46875;SDS011;32866;50.160;14.768;2023-04-24T06:09:22;2.70;;;1.88;;
46875;SDS011;32866;50.160;14.768;2023-04-24T06:11:48;2.65;;;1.60;;
46875;SDS011;32866;50.160;14.768;2023-04-24T06:14:14;1.97;;;1.50;;
46875;SDS011;32866;50.160;14.768;2023-04-24T06:16:41;3.25;;;1.90;;
46875;SDS011;32866;50.160;14.768;2023-04-24T06:19:07;3.03;;;1.83;;
46875;SDS011;32866;50.160;14.768;2023-04-24T06:21:32;2.50;;;2.10;;
46875;SDS011;32866;50.160;14.768;2023-04-24T06:23:58;3.90;;;2.03;;
46875;SDS011;32866;50.160;14.768;2023-04-24T06:26:23;2.40;;;1.83;;
46875;SDS011;32866;50.160;14.768;2023-04-24T06:28:50;3.83;;;1.97;;
46875;SDS011;32866;50.160;14.768;2023-04-24T06:33:41;3.00;;;1.87;;
46875;SDS011;32866;50.160;14.768;2023-04-24T06:36:07;5.70;;;3.20;;
46875;SDS011;32866;50.160;14.768;2023-04-24T06:38:33;8.02;;;4.38;;
46875;SDS011;32866;50.160;14.768;2023-04-24T06:40:59;8.00;;;5.93;;
46875;SDS011;32866;50.160;14.768;2023-04-24T06:43:24;7.57;;;4.20;;
46875;SDS011;32866;50.160;14.768;2023-04-24T06:45:50;15.05;;;6.38;;
46875;SDS011;32866;50.160;14.768;2023-04-24T06:48:15;9.63;;;5.95;;
46875;SDS011;32866;50.160;14.768;2023-04-24T06:50:40;10.77;;;3.97;;
46875;SDS011;32866;50.160;14.768;2023-04-24T06:53:06;6.03;;;4.38;;
46875;SDS011;32866;50.160;14.768;2023-04-24T06:55:31;5.40;;;3.28;;
46875;SDS011;32866;50.160;14.768;2023-04-24T06:57:57;4.15;;;2.65;;
46875;SDS011;32866;50.160;14.768;2023-04-24T07:00:22;3.35;;;2.25;;
46875;SDS011;32866;50.160;14.768;2023-04-24T07:02:49;4.70;;;3.40;;
46875;SDS011;32866;50.160;14.768;2023-04-24T07:05:14;3.45;;;3.00;;
46875;SDS011;32866;50.160;14.768;2023-04-24T07:07:40;5.45;;;3.35;;
46875;SDS011;32866;50.160;14.768;2023-04-24T07:10:06;4.30;;;2.47;;
46875;SDS011;32866;50.160;14.768;2023-04-24T07:12:33;4.93;;;2.53;;
46875;SDS011;32866;50.160;14.768;2023-04-24T07:14:59;3.13;;;2.30;;
46875;SDS011;32866;50.160;14.768;2023-04-24T07:17:25;6.30;;;2.77;;
46875;SDS011;32866;50.160;14.768;2023-04-24T07:19:50;2.65;;;2.22;;
46875;SDS011;32866;50.160;14.768;2023-04-24T07:22:16;5.90;;;3.00;;
46875;SDS011;32866;50.160;14.768;2023-04-24T07:24:45;4.78;;;2.40;;
46875;SDS011;32866;50.160;14.768;2023-04-24T07:27:10;6.57;;;3.13;;
46875;SDS011;32866;50.160;14.768;2023-04-24T07:29:36;5.28;;;3.72;;
46875;SDS011;32866;50.160;14.768;2023-04-24T07:32:02;5.90;;;4.97;;
46875;SDS011;32866;50.160;14.768;2023-04-24T07:34:27;6.93;;;4.13;;
46875;SDS011;32866;50.160;14.768;2023-04-24T07:36:53;3.55;;;2.88;;
46875;SDS011;32866;50.160;14.768;2023-04-24T07:39:18;4.10;;;3.00;;
46875;SDS011;32866;50.160;14.768;2023-04-24T07:41:43;3.53;;;2.80;;
46875;SDS011;32866;50.160;14.768;2023-04-24T07:44:09;4.15;;;2.80;;
46875;SDS011;32866;50.160;14.768;2023-04-24T07:46:34;5.35;;;3.00;;
46875;SDS011;32866;50.160;14.768;2023-04-24T07:49:00;4.60;;;2.97;;
46875;SDS011;32866;50.160;14.768;2023-04-24T07:51:26;4.13;;;2.88;;
46875;SDS011;32866;50.160;14.768;2023-04-24T07:53:52;5.10;;;2.60;;
46875;SDS011;32866;50.160;14.768;2023-04-24T07:56:19;5.10;;;2.73;;
46875;SDS011;32866;50.160;14.768;2023-04-24T07:58:45;3.72;;;1.90;;
46875;SDS011;32866;50.160;14.768;2023-04-24T08:01:10;7.43;;;4.10;;
46875;SDS011;32866;50.160;14.768;2023-04-24T08:03:35;4.18;;;2.60;;
46875;SDS011;32866;50.160;14.768;2023-04-24T08:06:01;3.22;;;2.78;;
46875;SDS011;32866;50.160;14.768;2023-04-24T08:08:27;3.67;;;2.53;;
46875;SDS011;32866;50.160;14.768;2023-04-24T08:10:52;3.78;;;2.50;;
46875;SDS011;32866;50.160;14.768;2023-04-24T08:15:48;5.57;;;3.47;;
46875;SDS011;32866;50.160;14.768;2023-04-24T08:18:13;8.93;;;4.82;;
46875;SDS011;32866;50.160;14.768;2023-04-24T08:20:40;4.97;;;3.25;;
46875;SDS011;32866;50.160;14.768;2023-04-24T08:23:06;7.15;;;3.58;;
46875;SDS011;32866;50.160;14.768;2023-04-24T08:25:31;3.63;;;2.67;;
46875;SDS011;32866;50.160;14.768;2023-04-24T08:27:57;8.65;;;3.30;;
46875;SDS011;32866;50.160;14.768;2023-04-24T08:30:22;6.22;;;2.90;;
46875;SDS011;32866;50.160;14.768;2023-04-24T08:32:48;4.32;;;3.30;;
46875;SDS011;32866;50.160;14.768;2023-04-24T08:35:13;4.15;;;3.30;;
46875;SDS011;32866;50.160;14.768;2023-04-24T08:37:39;6.00;;;3.42;;
46875;SDS011;32866;50.160;14.768;2023-04-24T08:40:14;5.90;;;3.17;;
46875;SDS011;32866;50.160;14.768;2023-04-24T08:42:44;3.83;;;2.60;;
46875;SDS011;32866;50.160;14.768;2023-04-24T08:45:11;5.50;;;2.90;;
46875;SDS011;32866;50.160;14.768;2023-04-24T08:47:38;3.73;;;2.80;;
46875;SDS011;32866;50.160;14.768;2023-04-24T08:50:04;7.13;;;5.20;;
46875;SDS011;32866;50.160;14.768;2023-04-24T08:52:32;5.33;;;3.47;;
46875;SDS011;32866;50.160;14.768;2023-04-24T08:54:57;4.07;;;2.70;;
46875;SDS011;32866;50.160;14.768;2023-04-24T08:57:25;3.73;;;2.30;;
46875;SDS011;32866;50.160;14.768;2023-04-24T08:59:51;6.53;;;2.23;;
46875;SDS011;32866;50.160;14.768;2023-04-24T09:02:18;3.23;;;2.40;;
46875;SDS011;32866;50.160;14.768;2023-04-24T09:04:43;3.03;;;2.47;;
46875;SDS011;32866;50.160;14.768;2023-04-24T09:07:11;3.43;;;1.93;;
46875;SDS011;32866;50.160;14.768;2023-04-24T09:09:37;3.47;;;2.00;;
46875;SDS011;32866;50.160;14.768;2023-04-24T09:12:03;3.67;;;1.90;;
46875;SDS011;32866;50.160;14.768;2023-04-24T09:14:29;3.78;;;2.83;;
46875;SDS011;32866;50.160;14.768;2023-04-24T09:16:56;1.95;;;1.67;;
46875;SDS011;32866;50.160;14.768;2023-04-24T09:19:22;2.78;;;1.80;;
46875;SDS011;32866;50.160;14.768;2023-04-24T09:21:47;3.47;;;2.42;;
46875;SDS011;32866;50.160;14.768;2023-04-24T09:24:20;7.72;;;1.90;;
46875;SDS011;32866;50.160;14.768;2023-04-24T09:26:47;2.00;;;1.40;;
46875;SDS011;32866;50.160;14.768;2023-04-24T09:29:17;5.40;;;2.80;;
46875;SDS011;32866;50.160;14.768;2023-04-24T09:31:43;4.63;;;2.22;;
46875;SDS011;32866;50.160;14.768;2023-04-24T09:34:10;3.60;;;2.07;;
46875;SDS011;32866;50.160;14.768;2023-04-24T09:36:39;4.35;;;2.70;;
46875;SDS011;32866;50.160;14.768;2023-04-24T09:39:11;6.28;;;3.17;;
46875;SDS011;32866;50.160;14.768;2023-04-24T09:44:25;7.53;;;3.90;;
46875;SDS011;32866;50.160;14.768;2023-04-24T09:46:52;4.10;;;2.50;;
46875;SDS011;32866;50.160;14.768;2023-04-24T09:49:26;5.95;;;1.65;;
46875;SDS011;32866;50.160;14.768;2023-04-24T09:52:02;2.20;;;1.38;;
46875;SDS011;32866;50.160;14.768;2023-04-24T09:54:28;2.20;;;2.00;;
46875;SDS011;32866;50.160;14.768;2023-04-24T09:56:54;5.95;;;2.13;;
46875;SDS011;32866;50.160;14.768;2023-04-24T09:59:20;2.97;;;2.38;;
46875;SDS011;32866;50.160;14.768;2023-04-24T10:01:45;3.15;;;2.00;;
46875;SDS011;32866;50.160;14.768;2023-04-24T10:04:17;3.55;;;2.22;;
46875;SDS011;32866;50.160;14.768;2023-04-24T10:06:43;3.75;;;2.17;;
46875;SDS011;32866;50.160;14.768;2023-04-24T10:09:09;4.50;;;2.90;;
46875;SDS011;32866;50.160;14.768;2023-04-24T10:11:37;2.38;;;2.00;;
46875;SDS011;32866;50.160;14.768;2023-04-24T10:14:03;3.78;;;2.20;;
46875;SDS011;32866;50.160;14.768;2023-04-24T10:16:28;3.40;;;2.13;;
46875;SDS011;32866;50.160;14.768;2023-04-24T10:18:56;2.70;;;2.10;;
46875;SDS011;32866;50.160;14.768;2023-04-24T10:21:24;2.65;;;1.98;;
46875;SDS011;32866;50.160;14.768;2023-04-24T10:23:51;3.80;;;1.90;;
46875;SDS011;32866;50.160;14.768;2023-04-24T10:26:18;1.33;;;1.10;;
46875;SDS011;32866;50.160;14.768;2023-04-24T10:28:46;2.28;;;1.80;;
46875;SDS011;32866;50.160;14.768;2023-04-24T10:31:13;3.53;;;1.65;;
46875;SDS011;32866;50.160;14.768;2023-04-24T10:33:40;1.17;;;1.02;;
46875;SDS011;32866;50.160;14.768;2023-04-24T10:36:07;2.03;;;1.45;;
46875;SDS011;32866;50.160;14.768;2023-04-24T10:38:38;1.88;;;1.30;;
46875;SDS011;32866;50.160;14.768;2023-04-24T10:41:06;1.65;;;1.05;;
46875;SDS011;32866;50.160;14.768;2023-04-24T10:43:34;1.92;;;1.40;;
46875;SDS011;32866;50.160;14.768;2023-04-24T10:46:00;2.60;;;1.40;;
46875;SDS011;32866;50.160;14.768;2023-04-24T10:48:28;3.80;;;1.50;;
46875;SDS011;32866;50.160;14.768;2023-04-24T10:50:53;2.75;;;1.95;;
46875;SDS011;32866;50.160;14.768;2023-04-24T10:55:49;4.53;;;2.78;;
46875;SDS011;32866;50.160;14.768;2023-04-24T10:58:18;2.30;;;1.83;;
46875;SDS011;32866;50.160;14.768;2023-04-24T11:00:55;7.28;;;2.78;;
46875;SDS011;32866;50.160;14.768;2023-04-24T11:03:23;3.92;;;2.42;;
46875;SDS011;32866;50.160;14.768;2023-04-24T11:08:29;4.07;;;1.85;;
46875;SDS011;32866;50.160;14.768;2023-04-24T11:10:57;3.30;;;1.98;;
46875;SDS011;32866;50.160;14.768;2023-04-24T11:13:25;2.22;;;2.03;;
46875;SDS011;32866;50.160;14.768;2023-04-24T11:18:39;5.22;;;1.90;;
46875;SDS011;32866;50.160;14.768;2023-04-24T11:26:46;4.18;;;2.22;;
46875;SDS011;32866;50.160;14.768;2023-04-24T11:31:38;1.88;;;1.70;;
46875;SDS011;32866;50.160;14.768;2023-04-24T11:34:09;2.20;;;1.88;;
46875;SDS011;32866;50.160;14.768;2023-04-24T11:36:35;2.63;;;1.58;;
46875;SDS011;32866;50.160;14.768;2023-04-24T11:39:01;2.15;;;1.27;;
46875;SDS011;32866;50.160;14.768;2023-04-24T11:43:53;2.10;;;1.88;;
46875;SDS011;32866;50.160;14.768;2023-04-24T11:48:45;3.05;;;1.52;;
46875;SDS011;32866;50.160;14.768;2023-04-24T11:53:37;2.80;;;1.50;;
46875;SDS011;32866;50.160;14.768;2023-04-24T11:58:28;1.58;;;1.42;;
46875;SDS011;32866;50.160;14.768;2023-04-24T12:00:59;3.63;;;1.70;;
46875;SDS011;32866;50.160;14.768;2023-04-24T12:03:26;2.53;;;1.30;;
46875;SDS011;32866;50.160;14.768;2023-04-24T12:08:28;1.70;;;1.30;;
46875;SDS011;32866;50.160;14.768;2023-04-24T12:10:54;2.78;;;1.67;;
46875;SDS011;32866;50.160;14.768;2023-04-24T12:15:45;1.27;;;1.17;;
46875;SDS011;32866;50.160;14.768;2023-04-24T12:20:40;3.17;;;1.00;;
46875;SDS011;32866;50.160;14.768;2023-04-24T12:23:05;1.45;;;1.25;;
46875;SDS011;32866;50.160;14.768;2023-04-24T12:30:27;1.42;;;1.13;;
46875;SDS011;32866;50.160;14.768;2023-04-24T12:32:56;1.92;;;0.63;;
46875;SDS011;32866;50.160;14.768;2023-04-24T12:35:23;2.30;;;0.80;;
46875;SDS011;32866;50.160;14.768;2023-04-24T12:37:50;1.27;;;0.60;;
46875;SDS011;32866;50.160;14.768;2023-04-24T12:42:42;3.47;;;0.85;;
46875;SDS011;32866;50.160;14.768;2023-04-24T12:45:10;1.33;;;1.02;;
46875;SDS011;32866;50.160;14.768;2023-04-24T12:47:37;1.50;;;0.98;;
46875;SDS011;32866;50.160;14.768;2023-04-24T12:52:29;3.38;;;1.33;;
46875;SDS011;32866;50.160;14.768;2023-04-24T12:54:58;4.07;;;1.95;;
46875;SDS011;32866;50.160;14.768;2023-04-24T12:57:25;4.60;;;2.10;;
46875;SDS011;32866;50.160;14.768;2023-04-24T12:59:54;3.67;;;1.80;;
46875;SDS011;32866;50.160;14.768;2023-04-24T13:02:27;3.80;;;1.80;;
46875;SDS011;32866;50.160;14.768;2023-04-24T13:04:55;1.67;;;1.30;;
46875;SDS011;32866;50.160;14.768;2023-04-24T13:07:21;3.22;;;1.92;;
46875;SDS011;32866;50.160;14.768;2023-04-24T13:09:47;2.58;;;2.00;;
46875;SDS011;32866;50.160;14.768;2023-04-24T13:12:13;2.05;;;1.13;;
46875;SDS011;32866;50.160;14.768;2023-04-24T13:14:39;2.42;;;1.33;;
46875;SDS011;32866;50.160;14.768;2023-04-24T13:17:04;2.13;;;1.55;;
46875;SDS011;32866;50.160;14.768;2023-04-24T13:19:35;2.60;;;1.38;;
46875;SDS011;32866;50.160;14.768;2023-04-24T13:22:05;3.72;;;2.00;;
46875;SDS011;32866;50.160;14.768;2023-04-24T13:24:30;1.08;;;0.90;;
46875;SDS011;32866;50.160;14.768;2023-04-24T13:26:56;2.72;;;1.85;;
46875;SDS011;32866;50.160;14.768;2023-04-24T13:31:50;3.22;;;1.20;;
46875;SDS011;32866;50.160;14.768;2023-04-24T13:34:16;2.45;;;1.10;;
46875;SDS011;32866;50.160;14.768;2023-04-24T13:36:42;0.80;;;0.75;;
46875;SDS011;32866;50.160;14.768;2023-04-24T13:39:07;7.07;;;1.25;;
46875;SDS011;32866;50.160;14.768;2023-04-24T13:41:33;2.58;;;1.00;;
46875;SDS011;32866;50.160;14.768;2023-04-24T13:43:59;2.65;;;0.70;;
46875;SDS011;32866;50.160;14.768;2023-04-24T13:48:50;1.80;;;1.00;;
46875;SDS011;32866;50.160;14.768;2023-04-24T13:51:15;1.70;;;0.90;;
46875;SDS011;32866;50.160;14.768;2023-04-24T13:56:06;2.13;;;0.90;;
46875;SDS011;32866;50.160;14.768;2023-04-24T14:00:57;4.13;;;1.38;;
46875;SDS011;32866;50.160;14.768;2023-04-24T14:05:48;2.50;;;1.15;;
46875;SDS011;32866;50.160;14.768;2023-04-24T14:08:13;2.63;;;1.50;;
46875;SDS011;32866;50.160;14.768;2023-04-24T14:10:38;2.17;;;1.23;;
46875;SDS011;32866;50.160;14.768;2023-04-24T14:15:30;5.00;;;1.45;;
46875;SDS011;32866;50.160;14.768;2023-04-24T14:17:56;2.70;;;1.20;;
46875;SDS011;32866;50.160;14.768;2023-04-24T14:20:21;2.35;;;1.25;;
46875;SDS011;32866;50.160;14.768;2023-04-24T14:22:47;2.78;;;1.20;;
46875;SDS011;32866;50.160;14.768;2023-04-24T14:25:12;1.77;;;1.27;;
46875;SDS011;32866;50.160;14.768;2023-04-24T14:30:05;2.97;;;2.25;;
46875;SDS011;32866;50.160;14.768;2023-04-24T14:32:31;9.38;;;1.88;;
46875;SDS011;32866;50.160;14.768;2023-04-24T14:34:56;2.53;;;1.73;;
46875;SDS011;32866;50.160;14.768;2023-04-24T14:39:47;3.92;;;1.65;;
46875;SDS011;32866;50.160;14.768;2023-04-24T14:44:38;2.33;;;1.27;;
46875;SDS011;32866;50.160;14.768;2023-04-24T14:47:04;3.25;;;0.90;;
46875;SDS011;32866;50.160;14.768;2023-04-24T14:49:30;2.63;;;0.93;;
46875;SDS011;32866;50.160;14.768;2023-04-24T14:51:55;1.70;;;1.10;;
46875;SDS011;32866;50.160;14.768;2023-04-24T14:54:21;1.45;;;0.80;;
46875;SDS011;32866;50.160;14.768;2023-04-24T14:56:48;3.65;;;1.20;;
46875;SDS011;32866;50.160;14.768;2023-04-24T14:59:14;1.17;;;0.70;;
46875;SDS011;32866;50.160;14.768;2023-04-24T15:01:39;1.13;;;0.80;;
46875;SDS011;32866;50.160;14.768;2023-04-24T15:04:05;2.03;;;1.30;;
46875;SDS011;32866;50.160;14.768;2023-04-24T15:06:30;5.45;;;1.75;;
46875;SDS011;32866;50.160;14.768;2023-04-24T15:08:56;5.00;;;1.80;;
46875;SDS011;32866;50.160;14.768;2023-04-24T15:11:22;10.00;;;3.30;;
46875;SDS011;32866;50.160;14.768;2023-04-24T15:13:47;4.30;;;1.20;;
46875;SDS011;32866;50.160;14.768;2023-04-24T15:16:12;2.45;;;1.23;;
46875;SDS011;32866;50.160;14.768;2023-04-24T15:18:38;6.07;;;1.35;;
46875;SDS011;32866;50.160;14.768;2023-04-24T15:23:29;3.95;;;1.15;;
46875;SDS011;32866;50.160;14.768;2023-04-24T15:25:54;4.72;;;1.23;;
46875;SDS011;32866;50.160;14.768;2023-04-24T15:30:46;3.63;;;1.27;;
46875;SDS011;32866;50.160;14.768;2023-04-24T15:33:12;4.45;;;1.15;;
46875;SDS011;32866;50.160;14.768;2023-04-24T15:38:03;3.83;;;1.50;;
46875;SDS011;32866;50.160;14.768;2023-04-24T15:40:29;1.35;;;1.00;;
46875;SDS011;32866;50.160;14.768;2023-04-24T15:45:20;2.72;;;1.30;;
46875;SDS011;32866;50.160;14.768;2023-04-24T15:47:45;11.02;;;1.50;;
46875;SDS011;32866;50.160;14.768;2023-04-24T15:50:13;2.72;;;1.50;;
46875;SDS011;32866;50.160;14.768;2023-04-24T15:52:41;4.43;;;1.05;;
46875;SDS011;32866;50.160;14.768;2023-04-24T15:55:07;1.23;;;1.08;;
46875;SDS011;32866;50.160;14.768;2023-04-24T15:57:32;1.42;;;1.30;;
46875;SDS011;32866;50.160;14.768;2023-04-24T16:02:24;0.85;;;0.80;;
46875;SDS011;32866;50.160;14.768;2023-04-24T16:04:49;5.95;;;1.33;;